Time;durP1;ratioP1;P1;durP2;ratioP2;P2;SDS_P1;SDS_P2;PMS_P1;PMS_P2;Temp;Humidity;BMP_temperature;BMP_pressure;BME280_temperature;BME280_humidity;BME280_pressure;Samples;Min_cycle;Max_cycle;Signal;HPM_P1;HPM_P2
2023/04/03 00:01:05;;;;;;;;;;;7.50;83.10;;;7.76;51.10;99488.28;4990329;28;109963;-75
2023/04/03 00:03:34;;;;;;;;;;;7.50;83.00;;;7.78;51.05;99480.59;4991094;28;124340;-75
2023/04/03 00:06:01;;;;;;;;;;;7.50;83.10;;;7.80;51.55;99481.16;4992510;28;124053;-75
2023/04/03 00:08:30;;;;;;;;;;;7.60;83.10;;;7.83;51.17;99480.59;4978596;28;108735;-75
2023/04/03 00:10:58;;;;;;;;;;;7.60;82.70;;;7.81;50.93;99476.47;4986670;28;108758;-75
2023/04/03 00:13:25;;;;;;;;;;;7.60;82.80;;;7.79;50.90;99474.00;5006880;28;123877;-75
2023/04/03 00:15:51;;;;;;;;;;;7.60;82.80;;;7.84;51.09;99484.97;5006170;28;124222;-75
2023/04/03 00:18:17;;;;;;;;;;;7.60;82.70;;;7.80;50.51;99483.09;5006915;28;109218;-75
2023/04/03 00:20:49;;;;;;;;;;;7.50;82.40;;;7.81;51.24;99481.97;5024838;28;108661;-75
2023/04/03 00:23:16;;;;;;;;;;;7.50;82.60;;;7.83;51.28;99483.34;4994722;28;124460;-75
2023/04/03 00:25:45;;;;;;;;;;;7.60;82.60;;;7.84;50.67;99484.97;5010745;28;123995;-75
2023/04/03 00:28:12;;;;;;;;;;;7.60;82.50;;;7.83;50.85;99483.34;4993547;28;109803;-75
2023/04/03 00:30:38;;;;;;;;;;;7.60;82.50;;;7.84;50.80;99484.97;5040062;27;108767;-75
2023/04/03 00:33:04;;;;;;;;;;;7.60;82.40;;;7.84;50.86;99486.91;5025414;27;124763;-75
2023/04/03 00:35:34;;;;;;;;;;;7.60;82.10;;;7.83;50.89;99488.84;5043163;27;124145;-75
2023/04/03 00:38:00;;;;;;;;;;;7.60;82.30;;;7.82;50.42;99480.84;5011436;28;109003;-75
2023/04/03 00:40:34;;;;;;;;;;;7.60;82.10;;;7.79;50.55;99482.25;5013467;28;107902;-75
2023/04/03 00:43:00;;;;;;;;;;;7.60;82.10;;;7.74;50.58;99477.59;5003506;28;123864;-75
2023/04/03 00:45:39;;;;;;;;;;;7.50;81.90;;;7.75;50.79;99478.41;5025351;28;123030;-75
2023/04/03 00:48:26;;;;;;;;;;;7.50;82.10;;;7.75;50.62;99478.41;4995342;28;110908;-76
2023/04/03 00:50:52;;;;;;;;;;;7.50;81.80;;;7.66;50.71;99480.91;5005070;28;110237;-77
2023/04/03 00:53:28;;;;;;;;;;;7.40;81.70;;;7.60;50.75;99473.72;5000956;28;124191;-75
2023/04/03 00:55:58;;;;;;;;;;;7.40;81.80;;;7.57;50.73;99478.97;4992485;28;123766;-75
2023/04/03 00:58:34;;;;;;;;;;;7.40;82.00;;;7.57;50.82;99479.78;4989365;28;108831;-75
2023/04/03 01:01:13;;;;;;;;;;;7.40;82.10;;;7.57;50.97;99478.97;4990577;28;107773;-75
2023/04/03 01:03:39;;;;;;;;;;;7.30;82.10;;;7.52;50.98;99483.38;5023619;28;124176;-75
2023/04/03 01:06:13;;;;;;;;;;;7.30;82.10;;;7.45;50.86;99477.31;4995804;28;122930;-75
2023/04/03 01:08:39;;;;;;;;;;;7.20;82.00;;;7.42;51.21;99477.06;4997738;28;109617;-75
2023/04/03 01:11:11;;;;;;;;;;;7.20;82.30;;;7.38;51.54;99476.75;4994888;28;108333;-76
2023/04/03 01:13:38;;;;;;;;;;;7.10;82.30;;;7.35;51.43;99477.31;4995994;28;124183;-76
2023/04/03 01:16:05;;;;;;;;;;;7.10;82.30;;;7.36;51.32;99473.50;4993818;28;123997;-75
2023/04/03 01:18:36;;;;;;;;;;;7.10;82.60;;;7.42;51.38;99471.56;4995838;28;108053;-75
2023/04/03 01:21:24;;;;;;;;;;;7.20;82.80;;;7.43;51.64;99470.44;5029566;28;108680;-75
2023/04/03 01:24:03;;;;;;;;;;;7.20;82.70;;;7.41;50.93;99469.91;5010292;28;124691;-75
2023/04/03 01:26:39;;;;;;;;;;;7.10;82.30;;;7.38;51.47;99471.28;5008396;28;124157;-76
2023/04/03 01:29:05;;;;;;;;;;;7.10;82.50;;;7.37;51.35;99477.88;5017933;28;109487;-75
2023/04/03 01:31:34;;;;;;;;;;;7.10;82.50;;;7.38;51.19;99482.25;5001070;28;108694;-75
2023/04/03 01:34:03;;;;;;;;;;;7.20;82.50;;;7.39;51.39;99477.59;5010552;28;124066;-75
2023/04/03 01:36:36;;;;;;;;;;;7.20;82.60;;;7.41;51.89;99476.22;5009777;28;125109;-75
2023/04/03 01:39:05;;;;;;;;;;;8.50;83.80;;;7.43;51.62;99476.78;5007919;28;110152;-76
2023/04/03 01:41:33;;;;;;;;;;;7.20;82.60;;;7.45;51.18;99482.81;5028964;28;109416;-75
2023/04/03 01:44:00;;;;;;;;;;;7.20;82.50;;;7.43;51.16;99474.03;4996923;28;124347;-75
2023/04/03 01:46:26;;;;;;;;;;;7.20;82.40;;;7.44;51.70;99475.69;5008300;28;122919;-76
2023/04/03 01:48:52;;;;;;;;;;;7.20;82.50;;;7.48;51.65;99478.72;5008371;28;109775;-75
2023/04/03 01:51:18;;;;;;;;;;;7.70;82.90;;;7.45;51.21;99471.84;5022073;28;108652;-75
2023/04/03 01:53:46;;;;;;;;;;;7.20;82.10;;;7.42;51.13;99482.56;4993136;28;123256;-78
2023/04/03 01:56:12;;;;;;;;;;;7.20;82.30;;;7.42;51.51;99475.13;5000542;28;123629;-75
2023/04/03 01:58:38;;;;;;;;;;;7.20;82.40;;;7.43;51.25;99479.53;5002627;28;109268;-76
2023/04/03 02:01:05;;;;;;;;;;;7.20;82.30;;;7.40;51.51;99473.75;5035015;27;108570;-75
2023/04/03 02:03:37;;;;;;;;;;;7.20;82.30;;;7.38;51.38;99485.00;5015467;28;124756;-75
2023/04/03 02:06:03;;;;;;;;;;;7.20;82.30;;;7.33;51.70;99485.00;5011101;28;124279;-75
2023/04/03 02:08:33;;;;;;;;;;;7.10;82.30;;;7.33;50.97;99479.50;5001903;28;109229;-76
2023/04/03 02:10:59;;;;;;;;;;;7.10;82.20;;;7.31;51.36;99484.47;5028770;27;108312;-76
2023/04/03 02:13:28;;;;;;;;;;;7.10;82.50;;;7.30;51.00;99480.06;5001036;28;122236;-75
2023/04/03 02:15:58;;;;;;;;;;;7.10;82.30;;;7.28;51.35;99494.09;5005203;28;122969;-75
2023/04/03 02:18:25;;;;;;;;;;;7.00;82.40;;;7.28;51.54;99490.50;5009997;28;108436;-75
2023/04/03 02:20:51;;;;;;;;;;;7.00;82.50;;;7.29;51.55;99489.41;4987422;28;107732;-76
2023/04/03 02:23:26;;;;;;;;;;;7.10;82.60;;;7.28;51.31;99488.59;5020833;27;124492;-75
2023/04/03 02:25:52;;;;;;;;;;;7.10;82.50;;;7.28;51.75;99483.09;5011572;28;124150;-77
2023/04/03 02:28:21;;;;;;;;;;;7.10;82.30;;;7.26;51.63;99479.81;4995661;28;110385;-75
2023/04/03 02:30:48;;;;;;;;;;;7.00;82.20;;;7.28;51.56;99482.25;5005301;28;109630;-75
2023/04/03 02:33:14;;;;;;;;;;;7.10;82.10;;;7.27;50.66;99486.94;5006792;28;124428;-75
2023/04/03 02:35:40;;;;;;;;;;;7.10;81.70;;;7.27;51.02;99492.44;5013751;28;123326;-76
2023/04/03 02:38:09;;;;;;;;;;;7.10;81.80;;;7.28;50.33;99493.25;5006188;28;109280;-75
2023/04/03 02:40:38;;;;;;;;;;;7.00;81.00;;;7.23;50.47;99490.53;5028648;28;108573;-76
2023/04/03 02:43:05;;;;;;;;;;;7.00;80.90;;;7.21;50.68;99490.78;5009047;28;124187;-76
2023/04/03 02:45:36;;;;;;;;;;;7.00;81.20;;;7.23;50.50;99490.53;5010240;28;123059;-76
2023/04/03 02:48:02;;;;;;;;;;;7.00;81.00;;;7.23;50.53;99493.28;5008928;28;108969;-75
2023/04/03 02:50:28;;;;;;;;;;;7.00;80.80;;;7.22;50.59;99488.84;5011586;28;107354;-76
2023/04/03 02:52:58;;;;;;;;;;;7.00;80.80;;;7.23;50.17;99490.53;4993657;28;123506;-76
2023/04/03 02:55:24;;;;;;;;;;;7.00;80.90;;;7.23;50.70;99490.53;5011679;28;123977;-77
2023/04/03 02:57:58;;;;;;;;;;;7.00;81.00;;;7.26;50.57;99496.28;4999144;28;108465;-75
2023/04/03 03:00:26;;;;;;;;;;;7.00;81.00;;;7.24;50.24;99492.16;5031156;28;109126;-76
2023/04/03 03:02:52;;;;;;;;;;;7.00;80.70;;;7.23;49.78;99483.09;4998885;28;123887;-76
2023/04/03 03:05:22;;;;;;;;;;;7.00;80.50;;;7.21;49.80;99496.28;4998244;28;123174;-77
2023/04/03 03:07:53;;;;;;;;;;;6.90;80.10;;;7.16;49.99;99501.78;5005632;28;108633;-75
2023/04/03 03:10:23;;;;;;;;;;;6.80;80.10;;;7.15;50.31;99500.13;5001782;28;108525;-76
2023/04/03 03:12:49;;;;;;;;;;;6.90;80.50;;;7.17;50.12;99492.41;4996866;28;124475;-75
2023/04/03 03:15:17;;;;;;;;;;;6.90;80.50;;;7.18;49.94;99487.78;5011028;28;124437;-74
2023/04/03 03:17:46;;;;;;;;;;;6.90;80.40;;;7.20;50.35;99486.41;5008949;28;109538;-75
2023/04/03 03:20:16;;;;;;;;;;;6.90;80.30;;;7.19;50.12;99481.16;4991402;27;109152;-75
2023/04/03 03:22:51;;;;;;;;;;;6.90;80.50;;;7.22;49.93;99484.19;5014341;28;124369;-75
2023/04/03 03:25:24;;;;;;;;;;;7.00;80.50;;;7.26;49.99;99481.72;5022050;28;124475;-75
2023/04/03 03:27:53;;;;;;;;;;;8.20;81.30;;;7.26;50.07;99478.97;4989859;28;109373;-75
2023/04/03 03:30:25;;;;;;;;;;;7.00;80.40;;;7.31;49.80;99487.22;5022855;28;108916;-75
2023/04/03 03:32:52;;;;;;;;;;;7.00;80.30;;;7.33;49.83;99482.25;4990832;28;123922;-75
2023/04/03 03:35:18;;;;;;;;;;;7.10;80.30;;;7.35;50.19;99480.06;4991981;28;124117;-75
2023/04/03 03:37:47;;;;;;;;;;;7.10;80.20;;;7.36;49.75;99484.50;4989591;28;108420;-75
2023/04/03 03:40:14;;;;;;;;;;;7.10;80.10;;;7.35;49.66;99474.56;4988797;28;108360;-74
2023/04/03 03:42:42;;;;;;;;;;;7.10;79.80;;;7.33;49.53;99474.00;4992341;28;124409;-75
2023/04/03 03:45:12;;;;;;;;;;;7.00;79.40;;;7.32;49.74;99477.88;5006657;28;123282;-75
2023/04/03 03:47:38;;;;;;;;;;;7.00;79.70;;;7.28;48.93;99483.09;5009401;28;108914;-75
2023/04/03 03:50:08;;;;;;;;;;;7.00;79.30;;;7.24;48.86;99470.19;5007772;28;107914;-75
2023/04/03 03:52:34;;;;;;;;;;;6.90;79.20;;;7.20;49.10;99469.06;4998482;28;123223;-75
2023/04/03 03:55:01;;;;;;;;;;;6.90;79.40;;;7.20;48.96;99469.06;5000011;28;123735;-74
2023/04/03 03:57:33;;;;;;;;;;;6.90;79.40;;;7.23;49.87;99474.03;4991838;28;109401;-75
2023/04/03 04:00:00;;;;;;;;;;;6.90;79.60;;;7.24;49.40;99482.00;4990893;28;108833;-75
2023/04/03 04:02:30;;;;;;;;;;;6.90;79.50;;;7.23;49.41;99482.28;4986651;28;124501;-74
2023/04/03 04:04:57;;;;;;;;;;;6.90;79.30;;;7.20;49.57;99478.16;4990648;28;123801;-75
2023/04/03 04:07:23;;;;;;;;;;;6.90;79.40;;;7.21;49.13;99471.53;4990110;28;110318;-74
2023/04/03 04:09:49;;;;;;;;;;;6.90;79.10;;;7.19;48.68;99475.66;5013029;28;109808;-75
2023/04/03 04:12:18;;;;;;;;;;;6.80;78.60;;;7.15;49.14;99477.31;4981138;28;124520;-75
2023/04/03 04:14:47;;;;;;;;;;;6.80;79.00;;;7.15;49.30;99483.66;5022090;28;123842;-75
2023/04/03 04:17:18;;;;;;;;;;;6.80;79.30;;;7.19;48.80;99483.91;4989424;28;108558;-75
2023/04/03 04:19:44;;;;;;;;;;;6.80;78.90;;;7.19;48.83;99489.41;4988329;28;109329;-75
2023/04/03 04:22:12;;;;;;;;;;;6.80;78.80;;;7.20;48.87;99482.81;4996242;28;123230;-75
2023/04/03 04:24:45;;;;;;;;;;;6.80;78.70;;;7.23;48.41;99488.59;4986981;28;123921;-75
2023/04/03 04:27:11;;;;;;;;;;;6.80;78.60;;;7.24;49.00;99483.91;4987945;28;109387;-77
2023/04/03 04:29:37;;;;;;;;;;;6.90;78.70;;;7.27;48.59;99491.63;5013856;28;108778;-75
2023/04/03 04:32:07;;;;;;;;;;;6.90;78.70;;;7.30;48.94;99480.88;4994380;28;123338;-76
2023/04/03 04:34:34;;;;;;;;;;;7.00;78.80;;;7.35;48.72;99487.50;5022865;28;123967;-76
2023/04/03 04:37:00;;;;;;;;;;;7.00;78.80;;;7.38;48.36;99487.75;4990501;28;109763;-75
2023/04/03 04:39:34;;;;;;;;;;;7.00;78.60;;;7.41;47.96;99483.66;5025371;28;109169;-75
2023/04/03 04:42:00;;;;;;;;;;;7.10;77.70;;;7.38;48.07;99487.75;4991344;28;124347;-75
2023/04/03 04:44:26;;;;;;;;;;;7.00;77.70;;;7.35;47.59;99490.25;4993815;28;124134;-75
2023/04/03 04:46:58;;;;;;;;;;;7.00;77.00;;;7.30;47.88;99482.81;4990508;28;110006;-75
2023/04/03 04:49:24;;;;;;;;;;;7.00;77.40;;;7.28;48.04;99482.25;5005720;28;108916;-75
2023/04/03 04:51:53;;;;;;;;;;;7.00;77.70;;;7.29;48.25;99487.50;4989291;28;124165;-75
2023/04/03 04:54:22;;;;;;;;;;;7.00;77.60;;;7.31;48.31;99481.72;5007622;28;123582;-76
2023/04/03 04:56:50;;;;;;;;;;;7.00;77.60;;;7.32;48.21;99483.38;5005812;28;109329;-77
2023/04/03 04:59:18;;;;;;;;;;;7.00;77.40;;;7.32;47.83;99483.38;4993236;28;110407;-76
2023/04/03 05:01:46;;;;;;;;;;;7.00;77.30;;;7.32;47.63;99488.88;5003016;28;123521;-76
2023/04/03 05:04:13;;;;;;;;;;;7.10;77.10;;;7.29;47.96;99489.41;5027767;28;123478;-76
2023/04/03 05:06:39;;;;;;;;;;;7.00;76.80;;;7.30;47.85;99496.56;5003866;28;108576;-76
2023/04/03 05:09:06;;;;;;;;;;;7.00;77.20;;;7.31;47.73;99498.22;4992321;28;109048;-75
2023/04/03 05:11:34;;;;;;;;;;;7.00;77.10;;;7.34;47.42;99500.44;5014145;28;124104;-76
2023/04/03 05:14:00;;;;;;;;;;;7.00;76.80;;;7.37;47.68;99497.13;5001237;28;123920;-75
2023/04/03 05:16:27;;;;;;;;;;;7.10;76.60;;;7.39;47.12;99505.94;5005799;27;108316;-76
2023/04/03 05:18:53;;;;;;;;;;;7.10;76.60;;;7.43;47.61;99507.00;4988901;28;108096;-76
2023/04/03 05:21:24;;;;;;;;;;;8.00;77.50;;;7.46;46.99;99505.63;4986716;28;124614;-75
2023/04/03 05:23:51;;;;;;;;;;;7.10;76.00;;;7.43;46.78;99507.00;4985676;28;124191;-75
2023/04/03 05:26:17;;;;;;;;;;;7.10;75.60;;;7.39;46.70;99516.06;5017444;27;108590;-75
2023/04/03 05:28:46;;;;;;;;;;;7.00;75.30;;;7.35;46.90;99518.56;4988576;28;108433;-75
2023/04/03 05:31:12;;;;;;;;;;;7.00;75.20;;;7.28;46.03;99507.84;5004552;28;124175;-74
2023/04/03 05:33:39;;;;;;;;;;;7.00;74.90;;;7.22;46.20;99510.84;5030959;27;123899;-75
2023/04/03 05:36:12;;;;;;;;;;;6.90;74.70;;;7.15;46.58;99515.81;5026680;27;109487;-74
2023/04/03 05:38:39;;;;;;;;;;;6.80;75.20;;;7.15;46.72;99518.53;4998456;28;108588;-74
2023/04/03 05:41:05;;;;;;;;;;;6.80;75.40;;;7.16;46.67;99528.44;4983559;28;124356;-76
2023/04/03 05:43:38;;;;;;;;;;;6.80;75.90;;;7.15;47.18;99511.13;4989507;28;124041;-76
2023/04/03 05:46:12;;;;;;;;;;;6.80;75.60;;;7.17;47.14;99516.31;5003813;28;110352;-74
2023/04/03 05:48:39;;;;;;;;;;;6.80;75.70;;;7.18;48.05;99515.25;5007649;28;108566;-76
2023/04/03 05:51:21;;;;;;;;;;;6.80;76.80;;;7.21;46.84;99525.69;4997195;28;124282;-76
2023/04/03 05:53:47;;;;;;;;;;;6.80;75.80;;;7.14;46.85;99530.63;5005836;28;123384;-75
2023/04/03 05:56:16;;;;;;;;;;;6.70;75.60;;;7.08;46.42;99535.28;5012364;28;108621;-75
2023/04/03 05:58:48;;;;;;;;;;;6.70;75.00;;;6.98;46.37;99525.06;5002354;28;108710;-75
2023/04/03 06:01:16;;;;;;;;;;;6.60;75.00;;;6.93;46.71;99525.09;5003581;28;124047;-76
2023/04/03 06:03:48;;;;;;;;;;;6.60;75.20;;;6.95;46.74;99528.38;4993287;28;124170;-75
2023/04/03 06:06:17;;;;;;;;;;;6.60;75.60;;;6.95;46.94;99538.53;5008434;28;108349;-74
2023/04/03 06:08:49;;;;;;;;;;;6.60;75.10;;;6.95;46.48;99533.88;5000519;28;108773;-74
2023/04/03 06:11:16;;;;;;;;;;;6.60;75.40;;;6.97;46.65;99537.19;4996405;28;124640;-74
2023/04/03 06:13:46;;;;;;;;;;;6.60;75.20;;;6.96;46.73;99546.53;4992968;28;124011;-74
2023/04/03 06:16:15;;;;;;;;;;;6.60;75.00;;;6.90;46.75;99546.75;4998530;28;107605;-74
2023/04/03 06:18:41;;;;;;;;;;;6.50;74.90;;;6.89;47.15;99547.88;5000808;28;109505;-74
2023/04/03 06:27:55;;;;;;;;;;;6.50;75.50;;;6.81;46.80;99551.97;5005015;28;109755;-74
2023/04/03 06:30:21;;;;;;;;;;;6.50;75.50;;;6.77;46.97;99546.19;5005138;28;107848;-74
2023/04/03 06:32:50;;;;;;;;;;;6.40;75.60;;;6.78;47.61;99556.06;5001276;28;123164;-75
2023/04/03 06:35:19;;;;;;;;;;;6.50;75.90;;;6.85;47.04;99550.31;5038477;27;124125;-74
2023/04/03 06:37:47;;;;;;;;;;;6.50;76.00;;;6.88;47.43;99549.81;5007263;28;109885;-73
2023/04/03 06:40:21;;;;;;;;;;;6.40;75.80;;;6.88;47.14;99551.69;5003233;28;109691;-75
2023/04/03 06:42:47;;;;;;;;;;;6.50;76.10;;;6.91;47.28;99554.75;5038107;27;123928;-74
2023/04/03 06:45:14;;;;;;;;;;;6.50;76.30;;;6.95;47.43;99555.84;5003266;28;123519;-74
2023/04/03 06:47:40;;;;;;;;;;;6.60;76.50;;;6.98;48.49;99555.28;5032654;27;109634;-74
2023/04/03 06:50:07;;;;;;;;;;;6.60;77.30;;;7.02;48.38;99561.09;5006955;28;108591;-75
2023/04/03 06:52:33;;;;;;;;;;;6.60;77.60;;;7.03;48.51;99546.25;5027615;28;123471;-75
2023/04/03 06:55:00;;;;;;;;;;;6.60;77.20;;;7.02;48.41;99558.34;5040446;27;123838;-75
2023/04/03 06:57:29;;;;;;;;;;;6.60;77.30;;;7.01;48.25;99556.69;5037919;27;109350;-74
2023/04/03 06:59:58;;;;;;;;;;;6.70;77.30;;;6.99;48.20;99556.97;5006560;28;108778;-75
2023/04/03 07:02:30;;;;;;;;;;;6.60;77.10;;;7.01;48.14;99559.44;5026978;27;125008;-75
2023/04/03 07:04:56;;;;;;;;;;;6.60;77.50;;;7.07;48.31;99575.69;5026170;28;123371;-75
2023/04/03 07:07:22;;;;;;;;;;;6.70;77.60;;;7.15;48.43;99573.50;5007449;28;108493;-75
2023/04/03 07:09:51;;;;;;;;;;;6.80;77.80;;;7.24;48.18;99566.38;4993274;28;108092;-77
2023/04/03 07:12:17;;;;;;;;;;;6.80;77.70;;;7.25;48.41;99577.09;5025472;28;124090;-75
2023/04/03 07:14:46;;;;;;;;;;;6.80;77.40;;;7.25;47.78;99571.59;4991632;28;124347;-75
2023/04/03 07:17:13;;;;;;;;;;;6.90;77.30;;;7.28;48.15;99571.06;5006477;28;108734;-76
2023/04/03 07:19:39;;;;;;;;;;;6.90;77.40;;;7.30;47.88;99574.34;4989810;28;108959;-76
2023/04/03 07:22:05;;;;;;;;;;;6.90;77.10;;;7.29;47.91;99571.88;4990271;28;123187;-76
2023/04/03 07:24:31;;;;;;;;;;;6.90;77.20;;;7.30;48.11;99573.53;4990778;28;124093;-75
2023/04/03 07:26:58;;;;;;;;;;;6.90;77.10;;;7.30;47.68;99573.53;4992174;28;109682;-75
2023/04/03 07:29:26;;;;;;;;;;;6.90;77.00;;;7.34;48.39;99573.81;4997578;28;109803;-75
2023/04/03 07:31:55;;;;;;;;;;;7.00;77.40;;;7.38;47.84;99580.41;5002772;28;123860;-75
2023/04/03 07:34:21;;;;;;;;;;;7.00;77.10;;;7.36;47.66;99583.44;4990721;28;124061;-75
2023/04/03 07:36:47;;;;;;;;;;;7.00;76.80;;;7.39;47.79;99577.41;5025818;27;108231;-77
2023/04/03 07:39:14;;;;;;;;;;;7.00;77.10;;;7.44;48.11;99573.81;4991974;28;108845;-76
2023/04/03 07:41:40;;;;;;;;;;;7.00;76.90;;;7.46;47.38;99579.88;4990107;28;124788;-75
2023/04/03 07:44:09;;;;;;;;;;;7.00;76.90;;;7.49;47.42;99585.66;4996734;28;123215;-75
2023/04/03 07:46:36;;;;;;;;;;;7.10;76.90;;;7.53;47.58;99583.19;4990118;28;109638;-74
2023/04/03 07:49:02;;;;;;;;;;;7.10;76.90;;;7.55;47.59;99589.25;4990997;28;108496;-74
2023/04/03 07:51:31;;;;;;;;;;;7.10;76.80;;;7.56;47.66;99595.56;4990279;28;124895;-75
2023/04/03 07:54:00;;;;;;;;;;;7.10;76.80;;;7.60;47.84;99591.97;5003403;28;124262;-75
2023/04/03 07:56:26;;;;;;;;;;;7.20;76.90;;;7.58;46.99;99593.38;4992187;28;109070;-74
2023/04/03 07:58:53;;;;;;;;;;;7.20;76.50;;;7.56;47.31;99595.56;5021940;28;108713;-77
2023/04/03 08:01:19;;;;;;;;;;;7.10;76.70;;;7.54;47.77;99601.34;4989969;28;124157;-74
2023/04/03 08:03:48;;;;;;;;;;;7.20;76.70;;;7.53;47.08;99600.50;4991112;28;123486;-74
2023/04/03 08:06:16;;;;;;;;;;;7.10;76.50;;;7.51;47.89;99599.13;4990373;28;109417;-75
2023/04/03 08:08:50;;;;;;;;;;;7.10;77.00;;;7.56;48.09;99612.06;5022108;28;107879;-75
2023/04/03 08:11:18;;;;;;;;;;;7.10;77.30;;;7.59;47.77;99608.78;4991794;28;124084;-75
2023/04/03 08:13:44;;;;;;;;;;;7.20;77.40;;;7.60;48.09;99600.22;5005858;28;124005;-74
2023/04/03 08:16:22;;;;;;;;;;;7.20;77.40;;;7.63;48.13;99605.22;4996252;28;110045;-74
2023/04/03 08:18:48;;;;;;;;;;;7.20;77.40;;;7.65;48.30;99602.16;5004892;28;110232;-76
2023/04/03 08:21:14;;;;;;;;;;;7.30;77.60;;;7.63;48.22;99607.13;5005100;28;124610;-74
2023/04/03 08:23:46;;;;;;;;;;;7.30;77.70;;;7.60;48.53;99607.66;4989048;28;124649;-74
2023/04/03 08:26:15;;;;;;;;;;;7.20;77.50;;;7.62;48.04;99613.72;5021476;28;109626;-75
2023/04/03 08:28:41;;;;;;;;;;;7.30;77.80;;;7.66;47.95;99612.09;4971678;28;107888;-75
2023/04/03 08:31:15;;;;;;;;;;;7.20;77.50;;;7.70;48.29;99611.25;4987794;28;124792;-75
2023/04/03 08:33:44;;;;;;;;;;;7.30;77.70;;;7.72;48.19;99614.56;5021543;28;124235;-75
2023/04/03 08:36:22;;;;;;;;;;;7.30;77.30;;;7.70;47.66;99610.44;4993948;28;109466;-75
2023/04/03 08:38:51;;;;;;;;;;;7.30;77.20;;;7.71;48.05;99606.56;4993052;28;107843;-75
2023/04/03 08:41:30;;;;;;;;;;;7.30;77.50;;;7.74;48.16;99611.56;5015298;28;124236;-75
2023/04/03 08:44:24;;;;;;;;;;;7.30;77.50;;;7.79;48.08;99608.81;5019256;28;124033;-75
2023/04/03 08:47:02;;;;;;;;;;;7.40;77.80;;;7.84;47.88;99606.03;4988030;28;109583;-75
2023/04/03 08:49:47;;;;;;;;;;;7.40;77.40;;;7.82;47.87;99605.50;4991691;28;107881;-74
2023/04/03 08:52:16;;;;;;;;;;;7.40;77.00;;;7.85;47.95;99615.13;5005397;28;125589;-76
2023/04/03 08:54:50;;;;;;;;;;;7.40;77.30;;;7.87;47.65;99604.66;5032312;27;124598;-74
2023/04/03 08:57:23;;;;;;;;;;;7.50;76.90;;;7.87;47.49;99604.66;4999430;28;109062;-75
2023/04/03 08:59:49;;;;;;;;;;;7.50;76.80;;;7.87;47.72;99597.25;4988695;28;108101;-75
2023/04/03 09:02:42;;;;;;;;;;;7.50;76.70;;;7.90;47.69;99604.13;4983239;28;124524;-74
2023/04/03 09:05:18;;;;;;;;;;;7.50;77.20;;;8.00;47.56;99604.09;5004474;28;123438;-76
2023/04/03 09:07:57;;;;;;;;;;;7.60;77.10;;;8.04;47.07;99613.47;4988591;28;110417;-75
2023/04/03 09:10:27;;;;;;;;;;;7.60;76.70;;;8.06;47.01;99610.44;5004516;28;108772;-76
2023/04/03 09:13:11;;;;;;;;;;;7.60;76.70;;;8.11;47.28;99611.28;4994172;28;124123;-76
2023/04/03 09:15:40;;;;;;;;;;;7.60;76.50;;;8.11;46.96;99615.94;5015436;28;124277;-74
2023/04/03 09:18:40;;;;;;;;;;;7.60;75.80;;;8.13;46.48;99619.25;5035830;27;109109;-74
2023/04/03 09:21:29;;;;;;;;;;;8.90;76.90;;;8.12;45.97;99612.09;4986881;28;108545;-77
2023/04/03 09:23:58;;;;;;;;;;;7.60;75.50;;;8.14;46.05;99609.88;4991051;28;124902;-76
2023/04/03 09:26:36;;;;;;;;;;;7.60;75.30;;;8.14;45.87;99612.63;4977514;28;122431;-76
2023/04/03 09:29:06;;;;;;;;;;;7.60;74.80;;;8.11;46.18;99608.53;5042690;27;109380;-74
2023/04/03 09:31:42;;;;;;;;;;;7.70;75.20;;;8.14;46.56;99610.72;5026924;27;109001;-76
2023/04/03 09:34:17;;;;;;;;;;;7.70;75.50;;;8.21;46.42;99615.94;5000765;28;124120;-76
2023/04/03 09:36:48;;;;;;;;;;;7.80;75.60;;;8.22;46.13;99612.09;4989824;27;124209;-75
2023/04/03 09:39:30;;;;;;;;;;;7.80;75.50;;;8.27;46.29;99608.50;5008620;28;108522;-76
2023/04/03 09:41:56;;;;;;;;;;;7.90;75.70;;;8.31;46.12;99606.84;5038333;27;108517;-76
2023/04/03 09:44:26;;;;;;;;;;;7.90;75.10;;;8.32;46.25;99606.56;4992716;28;124794;-76
2023/04/03 09:46:52;;;;;;;;;;;7.90;75.10;;;8.33;45.72;99599.16;4992967;28;125276;-75
2023/04/03 09:49:19;;;;;;;;;;;7.90;74.60;;;8.29;45.84;99601.59;4991553;28;109240;-75
2023/04/03 09:51:45;;;;;;;;;;;7.80;74.60;;;8.28;45.78;99605.47;4994528;28;108025;-77
2023/04/03 09:54:40;;;;;;;;;;;7.80;74.50;;;8.33;45.47;99602.72;5020978;27;124071;-76
2023/04/03 09:57:12;;;;;;;;;;;7.90;74.30;;;8.39;44.87;99611.81;5026967;27;124162;-75
2023/04/03 09:59:48;;;;;;;;;;;7.90;73.50;;;8.36;44.38;99602.16;5022713;28;109586;-74
2023/04/03 10:02:36;;;;;;;;;;;7.90;72.60;;;8.27;45.10;99595.53;5029697;27;109950;-75
2023/04/03 10:05:05;;;;;;;;;;;7.80;73.00;;;8.24;45.18;99603.53;4997614;28;123572;-75
2023/04/03 10:07:33;;;;;;;;;;;7.80;73.50;;;8.23;45.15;99608.22;5027128;27;123931;-74
2023/04/03 10:10:14;;;;;;;;;;;7.80;73.70;;;8.25;45.22;99606.03;5023904;28;109891;-77
2023/04/03 10:12:40;;;;;;;;;;;7.90;73.50;;;8.27;45.28;99598.31;4993450;28;107693;-75
2023/04/03 10:15:13;;;;;;;;;;;7.90;73.50;;;8.28;44.84;99599.16;5000227;28;123069;-83
2023/04/03 10:18:00;;;;;;;;;;;7.80;73.00;;;8.27;44.96;99597.47;5026344;28;123077;-75
2023/04/03 10:20:33;;;;;;;;;;;7.80;73.10;;;8.28;45.04;99588.13;5004154;28;108968;-75
2023/04/03 10:23:29;;;;;;;;;;;7.90;73.30;;;8.33;44.93;99588.13;4992724;28;109296;-76
2023/04/03 10:26:05;;;;;;;;;;;7.90;73.10;;;8.38;44.62;99588.94;4998205;28;124288;-74
2023/04/03 10:28:50;;;;;;;;;;;8.00;72.50;;;8.40;44.30;99586.75;5002828;28;124262;-74
2023/04/03 10:31:18;;;;;;;;;;;8.00;72.10;;;8.47;44.18;99588.41;5002817;28;109113;-74
2023/04/03 10:34:06;;;;;;;;;;;8.00;72.00;;;8.52;43.77;99596.66;5023670;28;108462;-75
2023/04/03 10:36:54;;;;;;;;;;;8.10;71.60;;;8.59;43.90;99588.91;4997746;28;123527;-75
2023/04/03 10:39:31;;;;;;;;;;;8.20;72.00;;;8.67;43.38;99591.09;5005935;28;123437;-75
2023/04/03 10:42:05;;;;;;;;;;;8.20;71.40;;;8.68;43.83;99587.25;5002220;28;108611;-74
2023/04/03 10:44:45;;;;;;;;;;;8.30;71.70;;;8.72;43.62;99588.31;5008795;28;108024;-76
2023/04/03 10:47:21;;;;;;;;;;;8.30;71.30;;;8.76;43.61;99594.09;4990931;28;124381;-76
2023/04/03 10:50:23;;;;;;;;;;;8.40;71.40;;;8.78;43.45;99587.19;4989370;28;124241;-74
2023/04/03 10:52:52;;;;;;;;;;;8.40;70.90;;;8.79;43.25;99597.13;5008235;28;110940;-75
2023/04/03 10:55:32;;;;;;;;;;;8.30;70.60;;;8.78;42.63;99589.94;4998121;28;109656;-75
2023/04/03 10:57:59;;;;;;;;;;;8.40;70.10;;;8.77;42.92;99591.06;4989239;28;122928;-74
2023/04/03 11:00:39;;;;;;;;;;;8.30;70.20;;;8.79;42.79;99588.03;5023268;27;123997;-74
2023/04/03 11:03:14;;;;;;;;;;;8.30;70.30;;;8.79;42.82;99577.84;5007083;28;108595;-75
2023/04/03 11:05:44;;;;;;;;;;;8.40;70.30;;;8.86;42.80;99574.75;4981509;28;108169;-75
2023/04/03 11:08:29;;;;;;;;;;;8.50;70.10;;;8.87;41.63;99584.69;4992226;28;123137;-74
2023/04/03 11:11:17;;;;;;;;;;;8.40;68.00;;;8.85;42.01;99573.94;4990191;28;124055;-75
2023/04/03 11:14:02;;;;;;;;;;;8.40;69.10;;;8.88;41.98;99578.06;4982992;28;109826;-83
2023/04/03 11:16:30;;;;;;;;;;;8.50;69.10;;;8.91;41.55;99579.44;5023050;27;109037;-74
2023/04/03 11:19:21;;;;;;;;;;;8.50;67.80;;;8.91;41.29;99582.19;4990319;28;124391;-74
2023/04/03 11:21:56;;;;;;;;;;;8.40;67.10;;;8.88;40.56;99577.25;5010828;28;123976;-75
2023/04/03 11:24:26;;;;;;;;;;;8.50;66.60;;;8.83;40.03;99573.38;5009310;28;108675;-75
2023/04/03 11:26:54;;;;;;;;;;;8.40;65.40;;;8.79;39.84;99571.50;5010740;27;108871;-75
2023/04/03 11:29:27;;;;;;;;;;;8.40;64.90;;;8.74;39.67;99569.59;4996523;28;123211;-75
2023/04/03 11:32:01;;;;;;;;;;;8.30;64.70;;;8.75;40.29;99562.94;4989173;28;123979;-74
2023/04/03 11:34:38;;;;;;;;;;;8.30;65.50;;;8.73;40.26;99567.94;4991434;28;109552;-75
2023/04/03 11:37:12;;;;;;;;;;;8.30;65.60;;;8.76;40.60;99561.03;4992273;28;109151;-75
2023/04/03 11:39:39;;;;;;;;;;;8.30;65.80;;;8.75;40.32;99565.72;5011377;28;124279;-75
2023/04/03 11:42:16;;;;;;;;;;;8.30;65.60;;;8.74;40.22;99564.06;5008165;28;123109;-75
2023/04/03 11:44:45;;;;;;;;;;;8.30;65.50;;;8.72;40.42;99562.69;5001510;28;110065;-75
2023/04/03 11:47:12;;;;;;;;;;;8.20;65.80;;;8.76;40.56;99563.81;5020945;28;109728;-75